Airfield :
LOGIN :

Register | Disclaimer

   EN    FR    IT 

 










Legend :    VFR   Marginal VFR   IFR   Intensive IFR   Very Intensive IFR
Visi :
Ceiling :
>= 8 km
>= 3000ft
5 to 8 km
1000 to 3000 ft
1500m to 5 km
500 to 1000 ft
800 to 1500m
200 to 500 ft
< 800m
< 200 ft
Symbols :   Thunderstorms  Fog  Heavy snow  Heavy precipitations  Wind > 20 kt
SIGMETs :     Misc.  Thunderstorms  Icing  Turbulence  Mountain Waves  Volcanic Ashes







- Airport Elevation : 1247 ft
- IATA code : PRG


LKPR - Praha Ruzyne

CURRENT METAR :
  • 181830Z 12006KT 8000 NSC 04/00 Q1018 NOSIG

EXPIRED METARs :
  • 181800Z 10002KT 8000 NSC 04/01 Q1019 NOSIG
  • 181730Z VRB01KT 6000 NSC 02/01 Q1019 NOSIG
  • 181700Z 06004KT 6000 NSC 03/01 Q1019 NOSIG
  • 181653Z VRB02KT 5000 BR NSC 03/01 Q1019 RMK REG QNH 1016
  • 181630Z 36004KT 300V030 4000 BR NSC 03/00 Q1019 NOSIG
  • 181623Z 36004KT 330V030 4500 BR NSC 04/00 Q1019 RMK REG QNH 1016
  • 181600Z 06005KT 8000 NSC 07/00 Q1019 NOSIG
  • 181530Z 08005KT 8000 NSC 09/01 Q1019 NOSIG

TAF TAF LKPR
Valid from the 18 at 18:00 until the 20 at 00:00 UTC


181700Z 1818/2000 VRB02KT CAVOK
PROB40
TEMPO 1818/1906 3500 BR NSC
BECMG 1907/1909 24010KT
TEMPO 1909/1919 28014G24KT
TEMPO 1916/1920 BKN040
No reported NOTAMs for that airfield.



MET'MAP, your aeronautical weather chart ! - Copyright ORBIFLY December 2007 - Disclaimer

ORBIFLY MET'MAP TEAM :

Programming & Development : Alexandra Zaïnal
Concept & Development : Baudouin d'Aumeries
Co-Development & Prog : Marc-Olivier Méhu
Technical & hardware support : Manuel Goepfert

Contact : metmap@orbifly.com




SOURCES & CREDITS :

   NOAA